Time;durP1;ratioP1;P1;durP2;ratioP2;P2;SDS_P1;SDS_P2;PMS_P1;PMS_P2;Temp;Humidity;BMP_temperature;BMP_pressure;BME280_temperature;BME280_humidity;BME280_pressure;Samples;Min_cycle;Max_cycle;Signal;HPM_P1;HPM_P2
2021/10/24 00:04:32;;;;;;;17.17;7.75;;;;;;;3.47;76.43;101774.63;8601751;33;20189;-74
2021/10/24 00:09:35;;;;;;;18.45;8.40;;;;;;;3.50;76.29;101773.69;8602174;33;20944;-74
2021/10/24 00:14:40;;;;;;;13.75;7.50;;;;;;;3.44;76.46;101771.22;8601799;33;20149;-75
2021/10/24 00:19:43;;;;;;;15.38;8.25;;;;;;;3.41;76.48;101766.00;8601057;33;21343;-74
2021/10/24 00:24:46;;;;;;;15.00;7.32;;;;;;;3.41;76.56;101758.03;8599866;33;20243;-74
2021/10/24 00:29:50;;;;;;;12.07;8.13;;;;;;;3.40;76.24;101769.53;8601380;33;20693;-75
2021/10/24 00:34:53;;;;;;;12.93;7.57;;;;;;;3.32;76.74;101755.63;8599509;33;20169;-75
2021/10/24 00:39:56;;;;;;;11.73;7.20;;;;;;;3.23;76.42;101752.31;8600991;33;21624;-75
2021/10/24 00:45:23;;;;;;;9.68;6.75;;;;;;;3.20;76.68;101748.88;8600820;33;20510;-75
2021/10/24 00:50:27;;;;;;;12.02;7.18;;;;;;;3.18;76.52;101743.63;8599532;33;20145;-75
2021/10/24 00:55:31;;;;;;;16.38;7.28;;;;;;;3.12;76.68;101746.44;8598782;33;20236;-74
2021/10/24 01:00:36;;;;;;;13.52;6.80;;;;;;;3.10;76.57;101734.13;8599031;33;20188;-75
2021/10/24 01:05:40;;;;;;;16.23;6.88;;;;;;;3.04;76.60;101730.75;8599972;33;20606;-75
2021/10/24 01:10:43;;;;;;;9.55;6.57;;;;;;;3.05;76.84;101732.47;8600281;33;20187;-75
2021/10/24 01:15:47;;;;;;;11.15;7.30;;;;;;;3.12;77.21;101734.94;8597436;33;20598;-75
2021/10/24 01:20:52;;;;;;;13.75;7.60;;;;;;;3.15;76.77;101719.78;8598335;33;20177;-75
2021/10/24 01:25:55;;;;;;;12.38;7.25;;;;;;;3.12;76.64;101713.69;8598460;33;20196;-75
2021/10/24 01:30:58;;;;;;;11.57;7.15;;;;;;;3.09;76.57;101719.97;8598189;33;20217;-75
2021/10/24 01:36:07;;;;;;;12.63;6.15;;;;;;;3.03;76.62;101718.38;8597546;33;20192;-75
2021/10/24 01:41:11;;;;;;;14.20;6.55;;;;;;;3.03;76.78;101715.72;8599069;33;20637;-75
2021/10/24 01:46:14;;;;;;;13.27;6.50;;;;;;;2.99;76.89;101707.84;8597332;33;20200;-75
2021/10/24 01:51:20;;;;;;;12.65;6.80;;;;;;;2.98;76.82;101699.03;8597267;33;20185;-74
2021/10/24 01:56:24;;;;;;;16.92;6.78;;;;;;;2.95;76.81;101703.56;8596855;33;20243;-75
2021/10/24 02:01:27;;;;;;;15.30;6.75;;;;;;;2.87;76.73;101695.81;8598553;33;20486;-75
2021/10/24 02:06:39;;;;;;;12.52;6.45;;;;;;;2.84;76.98;101695.91;8596914;33;20189;-75
2021/10/24 02:11:43;;;;;;;11.38;6.53;;;;;;;2.80;77.13;101696.91;8597539;33;20148;-75
2021/10/24 02:16:46;;;;;;;13.15;6.45;;;;;;;2.66;77.63;101694.66;8597936;33;20208;-74
2021/10/24 02:21:52;;;;;;;14.27;6.45;;;;;;;2.71;77.60;101694.50;8597768;33;20260;-75
2021/10/24 02:26:57;;;;;;;9.48;6.80;;;;;;;2.70;77.54;101690.97;8599341;33;20137;-75
2021/10/24 02:32:02;;;;;;;8.77;6.10;;;;;;;2.74;77.72;101690.00;8603174;33;20173;-75
2021/10/24 02:37:21;;;;;;;12.07;6.95;;;;;;;2.71;77.67;101686.53;8602144;33;20197;-75
2021/10/24 02:42:24;;;;;;;14.90;7.13;;;;;;;2.67;77.46;101690.19;8604139;33;20193;-75
2021/10/24 02:47:27;;;;;;;13.48;7.13;;;;;;;2.67;77.91;101676.94;8602221;33;20415;-74
2021/10/24 02:52:32;;;;;;;12.48;6.60;;;;;;;2.65;77.80;101669.00;8603991;33;20708;-75
2021/10/24 02:57:35;;;;;;;15.18;7.72;;;;;;;2.57;78.14;101666.56;8601873;33;20288;-75
2021/10/24 03:02:39;;;;;;;13.75;7.35;;;;;;;2.57;78.22;101666.56;8602702;33;20272;-75
2021/10/24 03:07:44;;;;;;;14.95;6.90;;;;;;;2.56;78.41;101658.66;8602348;33;20701;-75
2021/10/24 03:12:47;;;;;;;13.93;7.65;;;;;;;2.47;79.06;101656.19;8603046;33;20803;-75
2021/10/24 03:17:52;;;;;;;14.20;8.25;;;;;;;2.54;78.94;101661.34;8600158;33;20832;-73
2021/10/24 03:22:57;;;;;;;14.27;7.72;;;;;;;2.59;78.92;101650.59;8602031;33;20185;-74
2021/10/24 03:28:00;;;;;;;14.23;8.55;;;;;;;2.59;79.06;101647.94;8601600;33;20491;-73
2021/10/24 03:33:03;;;;;;;15.82;7.68;;;;;;;2.54;78.74;101644.56;8600784;33;20149;-74
2021/10/24 03:38:11;;;;;;;16.45;8.02;;;;;;;2.46;79.16;101646.50;8600494;33;20180;-74
2021/10/24 03:43:14;;;;;;;12.98;8.10;;;;;;;2.51;78.92;101653.44;8600804;33;20235;-75
2021/10/24 03:48:17;;;;;;;15.55;7.97;;;;;;;2.49;78.97;101649.06;8634478;33;20716;-74
2021/10/24 03:53:26;;;;;;;14.23;8.32;;;;;;;2.47;78.88;101646.50;8634748;33;20172;-75
2021/10/24 03:58:31;;;;;;;18.95;8.98;;;;;;;2.39;78.84;101644.03;8635477;33;20161;-75
2021/10/24 04:03:34;;;;;;;12.77;8.77;;;;;;;2.34;79.04;101643.28;8708167;33;20526;-75
2021/10/24 04:08:40;;;;;;;13.85;8.50;;;;;;;2.35;79.07;101637.06;8715986;33;20231;-75
2021/10/24 04:13:43;;;;;;;14.27;8.80;;;;;;;2.36;79.07;101637.94;8720100;33;20198;-75
2021/10/24 04:18:48;;;;;;;15.70;8.98;;;;;;;2.33;79.25;101640.66;8693419;33;21650;-75
2021/10/24 04:23:53;;;;;;;16.23;8.70;;;;;;;2.30;79.21;101625.69;8685441;33;20152;-74
2021/10/24 04:28:57;;;;;;;14.88;8.55;;;;;;;2.29;79.28;101631.06;8714891;33;20183;-75
2021/10/24 04:34:00;;;;;;;18.48;9.38;;;;;;;2.19;79.43;101633.06;8682556;33;20172;-75
2021/10/24 04:39:04;;;;;;;15.18;9.27;;;;;;;2.24;79.27;101630.31;8691379;33;20184;-75
2021/10/24 04:44:09;;;;;;;18.70;9.80;;;;;;;2.19;79.39;101633.06;8691865;33;20998;-76
2021/10/24 04:49:12;;;;;;;17.70;9.70;;;;;;;2.18;79.39;101626.03;8688050;33;20191;-76
2021/10/24 04:54:16;;;;;;;15.38;9.55;;;;;;;2.20;79.32;101626.00;8690453;33;20183;-76
2021/10/24 04:59:20;;;;;;;14.27;9.20;;;;;;;2.12;79.20;101631.50;8690607;33;20192;-76
2021/10/24 05:04:24;;;;;;;16.75;9.82;;;;;;;2.10;79.53;101628.03;8690305;33;20148;-76
2021/10/24 05:09:29;;;;;;;16.88;9.93;;;;;;;2.05;79.71;101627.25;8691129;33;20423;-76
2021/10/24 05:14:32;;;;;;;15.85;9.75;;;;;;;1.99;79.69;101620.34;8690388;33;20144;-76
2021/10/24 05:19:35;;;;;;;18.17;9.82;;;;;;;1.96;79.83;101620.41;8715564;33;20183;-75
2021/10/24 05:24:40;;;;;;;20.48;10.48;;;;;;;1.89;79.81;101622.38;8689425;33;20239;-75
2021/10/24 05:29:43;;;;;;;16.17;10.10;;;;;;;1.87;80.32;101613.56;8713528;33;20147;-75
2021/10/24 05:34:46;;;;;;;18.60;10.77;;;;;;;1.85;80.44;101606.56;8686560;33;20147;-76
2021/10/24 05:39:55;;;;;;;20.15;10.68;;;;;;;1.86;80.34;101611.81;8710048;33;20187;-75
2021/10/24 05:45:35;;;;;;;18.73;11.32;;;;;;;1.83;80.43;101608.38;8692617;33;20174;-75
2021/10/24 05:50:39;;;;;;;17.67;10.63;;;;;;;1.82;80.52;101609.31;8714216;33;20454;-75
2021/10/24 05:55:45;;;;;;;19.45;11.45;;;;;;;1.81;80.67;101597.84;8713333;33;20226;-75
2021/10/24 06:00:49;;;;;;;20.08;10.88;;;;;;;1.78;80.63;101597.03;8688221;33;20140;-75
2021/10/24 06:06:19;;;;;;;19.85;11.00;;;;;;;1.80;80.81;101595.22;8724822;33;20194;-74
2021/10/24 06:11:28;;;;;;;18.08;11.20;;;;;;;1.81;80.70;101592.53;8777419;33;21698;-74
2021/10/24 06:16:31;;;;;;;22.23;11.65;;;;;;;1.75;80.98;101594.47;8753502;33;20183;-74
2021/10/24 06:21:34;;;;;;;20.45;11.95;;;;;;;1.81;80.90;101600.50;8779312;33;20187;-76
2021/10/24 06:26:43;;;;;;;19.73;11.38;;;;;;;1.86;80.68;101595.06;8753109;33;20691;-75
2021/10/24 06:31:47;;;;;;;15.48;7.25;;;;;;;2.16;81.59;101585.44;8778883;33;21579;-74
2021/10/24 06:37:20;;;;;;;42.38;20.33;;;;;;;2.60;81.00;101592.19;8747721;33;20208;-72
2021/10/24 06:42:29;;;;;;;19.63;10.20;;;;;;;2.93;78.99;101594.75;8753295;33;20183;-75
2021/10/24 06:47:58;;;;;;;38.47;16.50;;;;;;;3.50;77.67;101588.56;8773992;33;20592;-74
2021/10/24 06:53:24;;;;;;;24.63;13.63;;;;;;;3.72;75.08;101586.06;8777263;33;20218;-71
2021/10/24 06:58:57;;;;;;;30.00;15.85;;;;;;;3.97;73.65;101584.38;8776545;33;20194;-75
2021/10/24 07:04:23;;;;;;;19.35;10.50;;;;;;;4.25;72.83;101585.16;8776885;33;20320;-75
2021/10/24 07:09:51;;;;;;;18.38;11.60;;;;;;;4.46;71.63;101575.53;8754190;33;20167;-75
2021/10/24 07:14:56;;;;;;;22.25;13.63;;;;;;;4.62;71.22;101575.81;8740085;33;20464;-75
2021/10/24 07:19:59;;;;;;;18.73;11.40;;;;;;;5.04;70.44;101583.13;8778039;33;20201;-75
2021/10/24 07:25:04;;;;;;;18.13;11.50;;;;;;;5.31;69.51;101583.84;8752224;33;20139;-75
2021/10/24 07:30:16;;;;;;;27.35;14.07;;;;;;;5.56;68.84;101577.53;8751966;33;21014;-75
2021/10/24 07:35:26;;;;;;;20.17;12.80;;;;;;;5.94;68.13;101576.78;8751561;33;20146;-73
2021/10/24 07:40:29;;;;;;;16.42;11.25;;;;;;;6.32;66.68;101576.06;8776681;33;20165;-74
2021/10/24 07:45:33;;;;;;;22.23;13.07;;;;;;;6.49;66.34;101567.28;8751245;33;20854;-75
2021/10/24 07:50:37;;;;;;;19.40;11.00;;;;;;;6.72;65.02;101567.13;8751969;33;20212;-75
2021/10/24 07:55:43;;;;;;;20.58;11.77;;;;;;;6.95;64.51;101555.38;8773673;33;20155;-75
2021/10/24 08:01:01;;;;;;;18.33;9.88;;;;;;;7.23;63.78;101543.38;8748036;33;20436;-75
2021/10/24 08:06:05;;;;;;;15.20;9.23;;;;;;;7.57;63.18;101547.94;8749911;33;20140;-74
2021/10/24 08:11:09;;;;;;;22.88;13.43;;;;;;;7.94;62.00;101541.56;8775976;33;20216;-75
2021/10/24 08:16:14;;;;;;;21.92;14.27;;;;;;;8.18;61.21;101547.47;8706050;27;20957;-77
2021/10/24 08:21:17;;;;;;;24.63;13.88;;;;;;;8.12;60.95;101537.06;8704496;33;20244;-78
2021/10/24 08:26:23;;;;;;;23.48;14.38;;;;;;;8.40;60.66;101533.78;8703612;33;20167;-78
2021/10/24 08:31:29;;;;;;;14.25;9.18;;;;;;;8.83;59.02;101530.59;8726807;33;20210;-78
2021/10/24 08:36:32;;;;;;;17.95;10.52;;;;;;;9.13;58.75;101528.00;8727028;33;20532;-78
2021/10/24 08:41:37;;;;;;;14.00;8.10;;;;;;;9.02;58.18;101520.59;8705582;33;20250;-78
2021/10/24 08:46:41;;;;;;;13.75;8.93;;;;;;;9.14;58.73;101513.69;8704300;33;20172;-78
2021/10/24 08:51:44;;;;;;;13.18;8.68;;;;;;;9.14;58.51;101510.13;8704106;33;20152;-77
2021/10/24 08:56:48;;;;;;;11.80;8.27;;;;;;;9.37;58.07;101498.94;8697128;33;20155;-77
2021/10/24 09:01:54;;;;;;;11.52;7.80;;;;;;;10.02;57.75;101504.03;8718636;33;20157;-76
2021/10/24 09:07:01;;;;;;;12.05;7.35;;;;;;;9.94;56.37;101492.91;8696083;33;20454;-77
2021/10/24 09:12:08;;;;;;;12.07;6.93;;;;;;;9.90;56.58;101491.34;8724283;33;20153;-78
2021/10/24 09:17:16;;;;;;;11.50;7.00;;;;;;;10.28;56.92;101489.00;8723630;33;20153;-78
2021/10/24 09:22:24;;;;;;;9.73;5.97;;;;;;;10.76;55.50;101480.63;8702944;33;20749;-78
2021/10/24 09:27:28;;;;;;;10.77;6.10;;;;;;;11.00;53.97;101465.59;8703045;33;20148;-78
2021/10/24 09:32:47;;;;;;;11.13;7.18;;;;;;;11.39;53.25;101468.44;8704879;33;20172;-78
2021/10/24 09:37:51;;;;;;;7.20;5.30;;;;;;;11.66;52.02;101469.25;8701478;33;20243;-78
2021/10/24 09:43:20;;;;;;;11.10;6.30;;;;;;;11.80;51.16;101465.63;8739204;33;20149;-78
2021/10/24 09:48:27;;;;;;;8.43;5.55;;;;;;;11.49;51.70;101459.66;8701361;33;20144;-77
2021/10/24 09:53:32;;;;;;;8.35;5.78;;;;;;;11.83;51.20;101451.94;8698606;33;20676;-77
2021/10/24 09:58:39;;;;;;;7.20;5.63;;;;;;;12.29;49.82;101453.28;8695112;33;20370;-77
2021/10/24 10:03:45;;;;;;;9.27;5.20;;;;;;;12.29;51.34;101453.28;8715866;33;20247;-77
2021/10/24 10:08:51;;;;;;;8.93;5.60;;;;;;;12.70;49.16;101444.00;8694123;33;20683;-79
2021/10/24 10:13:59;;;;;;;7.68;4.72;;;;;;;13.03;48.34;101429.88;8693688;33;20191;-76
2021/10/24 10:19:08;;;;;;;8.10;4.85;;;;;;;13.21;47.35;101422.22;8693675;33;20633;-77
2021/10/24 10:24:45;;;;;;;6.75;4.63;;;;;;;13.22;47.55;101415.84;8715471;33;20176;-77
2021/10/24 10:29:53;;;;;;;9.88;4.45;;;;;;;13.67;46.21;101413.31;8696537;33;20461;-78
2021/10/24 10:35:11;;;;;;;6.10;4.45;;;;;;;13.41;46.87;101393.72;8693369;33;20234;-76
2021/10/24 10:40:17;;;;;;;14.25;6.50;;;;;;;13.31;48.32;101387.31;8693964;33;20561;-77
2021/10/24 10:45:46;;;;;;;9.43;5.40;;;;;;;13.96;46.93;101384.03;8715739;33;20469;-77
2021/10/24 10:50:55;;;;;;;8.63;4.47;;;;;;;14.33;45.49;101373.78;8742041;33;20140;-76
2021/10/24 10:56:31;;;;;;;6.35;4.25;;;;;;;14.49;45.31;101367.19;8720329;33;20444;-77
2021/10/24 11:01:39;;;;;;;5.65;4.22;;;;;;;14.54;45.36;101371.22;8702472;33;21146;-76
2021/10/24 11:06:59;;;;;;;10.10;5.25;;;;;;;15.03;44.56;101368.97;8697602;33;20633;-76
2021/10/24 11:12:05;;;;;;;10.65;4.45;;;;;;;15.80;43.40;101360.56;8697693;33;20147;-76
2021/10/24 11:17:08;;;;;;;6.93;3.30;;;;;;;17.22;39.42;101346.78;8718856;33;20157;-77
2021/10/24 11:22:17;;;;;;;5.70;3.20;;;;;;;16.60;37.83;101348.00;8719531;33;20571;-76
2021/10/24 11:27:23;;;;;;;5.53;2.63;;;;;;;16.98;36.70;101341.75;8718761;33;20696;-77
2021/10/24 11:32:33;;;;;;;4.97;2.53;;;;;;;17.46;35.75;101335.41;8709089;33;20465;-76
2021/10/24 11:37:40;;;;;;;3.20;2.17;;;;;;;17.12;36.37;101317.88;8695916;33;20325;-77
2021/10/24 11:43:00;;;;;;;2.38;2.05;;;;;;;17.80;36.31;101325.88;8696322;33;20264;-76
2021/10/24 11:48:10;;;;;;;3.53;2.33;;;;;;;17.19;36.45;101319.03;8696213;33;20501;-76
2021/10/24 11:53:36;;;;;;;2.88;2.17;;;;;;;16.93;35.61;101307.91;8695664;33;20514;-76
2021/10/24 12:03:59;;;;;;;2.80;1.98;;;;;;;18.29;34.48;101283.91;8695822;33;20148;-76
2021/10/24 12:09:05;;;;;;;4.30;1.90;;;;;;;17.82;34.46;101288.53;8695947;33;20235;-76
2021/10/24 12:14:10;;;;;;;3.10;2.35;;;;;;;17.36;36.03;101282.13;8695334;33;20204;-76
2021/10/24 12:19:26;;;;;;;3.15;2.30;;;;;;;17.40;35.59;101264.53;8695785;33;20152;-76
2021/10/24 12:24:42;;;;;;;3.38;2.08;;;;;;;17.81;35.18;101274.09;8701473;33;20172;-75
2021/10/24 12:29:58;;;;;;;4.70;2.10;;;;;;;17.87;35.00;101254.47;8697700;33;20638;-77
2021/10/24 12:35:09;;;;;;;3.90;2.13;;;;;;;18.03;34.56;101244.84;8699788;33;20175;-77
2021/10/24 12:40:25;;;;;;;2.72;2.42;;;;;;;17.81;34.29;101243.34;8702302;33;20243;-77
2021/10/24 12:45:29;;;;;;;2.97;2.00;;;;;;;17.65;35.37;101233.13;8700157;33;20152;-77
2021/10/24 12:50:35;;;;;;;18.75;3.00;;;;;;;18.09;34.85;101223.31;8700667;33;20155;-77
2021/10/24 12:55:40;;;;;;;3.05;2.10;;;;;;;17.93;35.48;101209.50;8702132;33;20148;-77
2021/10/24 13:00:45;;;;;;;3.20;2.05;;;;;;;18.17;34.57;101219.84;8701974;33;20177;-77
2021/10/24 13:05:48;;;;;;;3.45;2.30;;;;;;;17.47;35.15;101212.19;8704119;33;20141;-77
2021/10/24 13:10:51;;;;;;;4.55;2.30;;;;;;;17.87;35.07;101193.81;8703211;33;20144;-78
2021/10/24 13:15:55;;;;;;;2.28;2.08;;;;;;;18.27;33.83;101181.72;8705459;33;20152;-77
2021/10/24 13:21:01;;;;;;;2.70;2.33;;;;;;;18.25;34.11;101181.84;8724357;33;20234;-77
2021/10/24 13:26:05;;;;;;;5.55;2.42;;;;;;;18.14;33.67;101169.34;8703915;33;20223;-78
2021/10/24 13:31:09;;;;;;;2.55;2.10;;;;;;;18.35;33.40;101173.63;8702309;33;20141;-78
2021/10/24 13:36:13;;;;;;;5.43;2.50;;;;;;;17.46;34.43;101153.44;8701386;33;20133;-78
2021/10/24 13:41:17;;;;;;;8.40;4.80;;;;;;;17.66;34.68;101150.59;8701097;33;20136;-77
2021/10/24 13:46:21;;;;;;;6.15;3.30;;;;;;;17.41;34.36;101144.03;8700602;33;20199;-78
2021/10/24 13:51:28;;;;;;;3.83;2.90;;;;;;;17.58;34.33;101142.38;8696742;33;20167;-77
2021/10/24 13:56:31;;;;;;;3.92;2.30;;;;;;;17.23;34.15;101142.13;8719015;33;20621;-76
2021/10/24 14:01:35;;;;;;;4.68;2.83;;;;;;;16.87;34.98;101132.94;8700897;33;20156;-77
2021/10/24 14:06:39;;;;;;;3.00;1.98;;;;;;;16.80;34.93;101127.22;8699921;33;20172;-77
2021/10/24 14:11:42;;;;;;;3.65;1.92;;;;;;;17.37;35.13;101127.19;8699834;33;20195;-77
2021/10/24 14:16:47;;;;;;;11.80;5.40;;;;;;;17.33;36.27;101105.91;8718183;33;20145;-76
2021/10/24 14:21:50;;;;;;;3.35;2.28;;;;;;;17.59;36.29;101096.03;8698709;33;20207;-77
2021/10/24 14:26:53;;;;;;;9.10;5.38;;;;;;;17.85;37.53;101096.16;8715734;33;20137;-78
2021/10/24 14:31:58;;;;;;;6.50;4.88;;;;;;;17.85;38.12;101089.84;8751483;33;20149;-77
2021/10/24 14:37:01;;;;;;;4.95;2.70;;;;;;;17.69;37.95;101085.97;8712115;33;20148;-77
2021/10/24 14:42:04;;;;;;;5.20;3.17;;;;;;;17.04;38.43;101099.59;8701909;33;20152;-75
2021/10/24 14:47:09;;;;;;;10.90;5.07;;;;;;;16.67;39.42;101088.72;8700494;33;20184;-76
2021/10/24 14:52:12;;;;;;;7.07;4.60;;;;;;;16.58;39.98;101092.31;8700968;33;20661;-76
2021/10/24 14:57:16;;;;;;;7.60;4.15;;;;;;;16.40;40.07;101081.38;8700500;33;20136;-77
2021/10/24 15:02:20;;;;;;;7.30;5.10;;;;;;;16.07;40.78;101080.81;8700348;33;20447;-79
2021/10/24 15:07:24;;;;;;;7.75;5.60;;;;;;;15.42;41.36;101090.44;8704852;33;20672;-76
2021/10/24 15:12:27;;;;;;;7.07;3.92;;;;;;;15.21;41.92;101077.81;8698261;33;20176;-76
2021/10/24 15:17:42;;;;;;;5.03;3.20;;;;;;;14.85;43.18;101075.69;8698063;33;20235;-77
2021/10/24 15:22:45;;;;;;;2.92;2.38;;;;;;;14.44;43.32;101072.91;8698380;33;20175;-76
2021/10/24 15:27:48;;;;;;;4.13;3.05;;;;;;;14.00;44.87;101069.44;8699025;33;20193;-76
2021/10/24 15:32:53;;;;;;;6.60;4.22;;;;;;;13.22;46.67;101068.69;8698758;33;20176;-76
2021/10/24 15:37:56;;;;;;;12.05;7.45;;;;;;;12.49;48.29;101059.22;8700102;33;20238;-77
2021/10/24 15:42:59;;;;;;;5.65;3.97;;;;;;;11.98;49.86;101051.47;8699129;33;20201;-77
2021/10/24 15:48:05;;;;;;;16.38;9.20;;;;;;;11.67;50.41;101053.81;8699763;33;20197;-76
2021/10/24 15:53:08;;;;;;;14.85;8.65;;;;;;;11.43;51.27;101055.63;8698820;33;20503;-76
2021/10/24 15:58:15;;;;;;;7.22;5.10;;;;;;;11.16;51.96;101054.03;8698498;33;20685;-77
2021/10/24 16:03:20;;;;;;;10.48;5.15;;;;;;;11.05;52.45;101051.19;8698254;33;20243;-77
2021/10/24 16:08:24;;;;;;;8.18;4.47;;;;;;;10.77;53.16;101057.72;8705085;33;20137;-77
2021/10/24 16:13:27;;;;;;;9.23;4.53;;;;;;;10.50;53.94;101053.31;8726502;33;20149;-76
2021/10/24 16:18:31;;;;;;;5.22;4.18;;;;;;;10.17;54.81;101049.34;8723969;33;20188;-78
2021/10/24 16:23:35;;;;;;;7.53;4.15;;;;;;;9.99;55.22;101049.75;8712026;33;20129;-77
2021/10/24 16:28:39;;;;;;;6.40;4.95;;;;;;;9.96;55.29;101047.28;8703675;33;20133;-75
2021/10/24 16:33:43;;;;;;;6.53;4.72;;;;;;;9.86;55.74;101039.81;8719181;33;20148;-75
2021/10/24 16:38:46;;;;;;;5.95;3.88;;;;;;;9.66;56.04;101046.50;8719261;33;20430;-76
2021/10/24 16:43:49;;;;;;;6.38;5.55;;;;;;;9.61;56.47;101031.69;8703047;33;20156;-76
2021/10/24 16:48:54;;;;;;;8.77;5.22;;;;;;;9.43;56.89;101029.25;8707464;33;20152;-75
2021/10/24 16:53:57;;;;;;;7.05;4.57;;;;;;;9.25;57.26;101022.44;8696437;33;20202;-75
2021/10/24 16:59:00;;;;;;;11.48;5.63;;;;;;;9.17;57.61;101016.72;8695144;33;20251;-76
2021/10/24 17:04:05;;;;;;;10.55;5.93;;;;;;;9.02;57.80;101018.53;8694834;33;20152;-75
2021/10/24 17:09:08;;;;;;;7.55;5.43;;;;;;;8.93;58.01;101014.63;8695556;33;20553;-75
2021/10/24 17:14:13;;;;;;;6.55;4.93;;;;;;;8.70;58.76;101005.41;8717180;33;21098;-75
2021/10/24 17:19:18;;;;;;;6.18;4.25;;;;;;;8.69;58.82;101005.47;8694648;33;20521;-76
2021/10/24 17:24:21;;;;;;;5.43;4.78;;;;;;;8.56;59.35;100998.25;8693920;33;20239;-76
2021/10/24 17:29:26;;;;;;;8.63;4.70;;;;;;;8.49;59.52;100998.72;8694110;33;20247;-75
2021/10/24 17:34:31;;;;;;;7.22;4.65;;;;;;;8.37;59.82;100995.81;8693987;33;20155;-74
2021/10/24 17:39:34;;;;;;;7.03;5.15;;;;;;;8.45;59.64;100990.00;8693954;33;20213;-75
2021/10/24 17:44:37;;;;;;;7.03;4.35;;;;;;;8.45;59.42;100967.69;8716800;33;20175;-75
2021/10/24 17:49:42;;;;;;;6.53;3.45;;;;;;;8.33;59.49;100964.81;8694632;33;20161;-74
2021/10/24 17:54:45;;;;;;;6.75;4.65;;;;;;;8.45;59.04;100962.31;8693358;33;20176;-74
2021/10/24 17:59:48;;;;;;;5.78;4.07;;;;;;;8.51;58.65;100959.31;8697640;33;20668;-75
2021/10/24 18:04:53;;;;;;;5.72;4.15;;;;;;;8.58;58.24;100961.53;8698992;33;20247;-76
2021/10/24 18:09:56;;;;;;;6.28;4.45;;;;;;;8.68;58.03;100961.78;8699482;33;20975;-77
2021/10/24 18:14:59;;;;;;;8.73;4.32;;;;;;;8.64;57.96;100949.56;8698586;33;20469;-76
2021/10/24 18:20:25;;;;;;;6.32;4.05;;;;;;;8.54;58.02;100951.94;8721509;33;20688;-77
2021/10/24 18:25:28;;;;;;;6.95;4.15;;;;;;;8.53;58.15;100947.56;8698328;33;20679;-77
2021/10/24 18:30:32;;;;;;;4.93;3.78;;;;;;;8.47;58.00;100947.06;8698584;33;20145;-75
2021/10/24 18:35:36;;;;;;;5.53;3.88;;;;;;;8.54;57.41;100941.22;8698076;33;20196;-77
2021/10/24 18:40:39;;;;;;;5.95;3.83;;;;;;;8.56;57.24;100946.50;8698596;33;20467;-76
2021/10/24 18:45:42;;;;;;;5.82;3.80;;;;;;;8.63;56.93;100936.25;8698020;33;20190;-77
2021/10/24 18:50:51;;;;;;;7.82;3.40;;;;;;;8.60;56.99;100937.31;8720947;33;20149;-76
2021/10/24 18:55:56;;;;;;;5.93;3.72;;;;;;;8.55;56.93;100940.25;8697382;33;20191;-77
2021/10/24 19:01:01;;;;;;;5.30;4.28;;;;;;;8.58;56.71;100932.06;8696663;33;20231;-76
2021/10/24 19:06:06;;;;;;;4.78;3.08;;;;;;;8.57;56.54;100935.69;8697451;33;20554;-76
2021/10/24 19:11:10;;;;;;;3.97;3.17;;;;;;;8.71;56.27;100933.94;8697120;33;20427;-76
2021/10/24 19:16:13;;;;;;;5.47;3.25;;;;;;;8.60;56.34;100927.44;8697064;33;20231;-76
2021/10/24 19:21:20;;;;;;;5.93;3.22;;;;;;;8.53;56.49;100934.16;8697671;33;20148;-76
2021/10/24 19:26:27;;;;;;;4.78;3.42;;;;;;;8.50;56.55;100937.03;8718984;33;20231;-76
2021/10/24 19:31:30;;;;;;;4.57;2.95;;;;;;;8.51;56.43;100932.53;8697298;33;20148;-76
2021/10/24 19:36:34;;;;;;;4.90;3.30;;;;;;;8.52;56.15;100939.59;8718997;33;20438;-75
2021/10/24 19:41:37;;;;;;;4.28;3.28;;;;;;;8.45;56.25;100932.88;8697179;33;20145;-76
2021/10/24 19:46:40;;;;;;;4.00;3.25;;;;;;;8.37;56.40;100920.84;8696523;33;20287;-77
2021/10/24 19:51:45;;;;;;;6.90;3.35;;;;;;;8.34;56.39;100902.31;8696865;33;20625;-76
2021/10/24 19:56:48;;;;;;;4.43;3.28;;;;;;;8.44;56.11;100896.38;8695927;33;21009;-76
2021/10/24 20:01:51;;;;;;;5.03;3.88;;;;;;;8.31;56.74;100885.56;8696918;33;20211;-76
2021/10/24 20:06:56;;;;;;;4.40;3.45;;;;;;;8.25;57.00;100904.69;8719047;33;20156;-75
2021/10/24 20:11:59;;;;;;;5.45;3.25;;;;;;;8.17;57.58;100903.38;8695857;33;20442;-75
2021/10/24 20:17:03;;;;;;;4.25;3.63;;;;;;;8.07;58.03;100896.88;8684766;28;20428;-74
2021/10/24 20:22:10;;;;;;;5.20;3.70;;;;;;;8.03;58.24;100903.38;8697272;33;20183;-76
2021/10/24 20:27:13;;;;;;;6.95;3.70;;;;;;;7.90;58.80;100897.94;8697041;33;20156;-76
2021/10/24 20:32:16;;;;;;;7.10;4.70;;;;;;;7.77;59.28;100902.31;8697629;33;20141;-76
2021/10/24 20:37:20;;;;;;;5.70;3.65;;;;;;;7.68;59.60;100901.06;8696969;33;20535;-75
2021/10/24 20:42:23;;;;;;;4.72;3.90;;;;;;;7.59;59.94;100901.59;8696990;33;20150;-76
2021/10/24 20:47:30;;;;;;;6.07;3.80;;;;;;;7.55;60.21;100909.91;8695997;33;20470;-75
2021/10/24 20:52:35;;;;;;;5.40;4.65;;;;;;;7.53;60.09;100910.00;8696680;33;20454;-76
2021/10/24 20:57:38;;;;;;;22.55;10.48;;;;;;;7.49;60.40;100912.00;8698713;33;20144;-75
2021/10/24 21:02:41;;;;;;;6.65;4.30;;;;;;;7.44;60.51;100906.06;8699409;33;20141;-74
2021/10/24 21:07:46;;;;;;;4.72;4.32;;;;;;;7.42;60.88;100913.31;8674141;33;20641;-74
2021/10/24 21:12:49;;;;;;;6.15;3.92;;;;;;;7.37;60.83;100920.72;8674213;33;20973;-76
2021/10/24 21:17:52;;;;;;;5.75;4.35;;;;;;;7.38;60.66;100921.63;8697781;33;20449;-74
2021/10/24 21:22:57;;;;;;;5.80;4.45;;;;;;;7.25;61.21;100930.34;8698515;33;20149;-74
2021/10/24 21:28:00;;;;;;;6.97;4.78;;;;;;;7.26;61.33;100924.03;8697604;33;20152;-74
2021/10/24 21:33:03;;;;;;;6.35;4.72;;;;;;;7.20;61.69;100926.22;8697501;33;20136;-76
2021/10/24 21:38:07;;;;;;;5.97;5.03;;;;;;;7.05;62.17;100927.97;8696894;33;20184;-76
2021/10/24 21:43:10;;;;;;;10.90;5.50;;;;;;;6.95;62.63;100921.44;8698898;33;20175;-74
2021/10/24 21:48:14;;;;;;;6.43;4.57;;;;;;;6.90;63.01;100913.69;8673111;33;20240;-76
2021/10/24 21:53:18;;;;;;;7.43;4.10;;;;;;;6.92;62.81;100913.59;8697598;33;20660;-75
2021/10/24 21:58:21;;;;;;;7.68;3.90;;;;;;;6.90;62.99;100908.34;8673179;33;21129;-75
2021/10/24 22:03:24;;;;;;;5.55;3.75;;;;;;;6.79;63.44;100908.91;8697495;33;20235;-76
2021/10/24 22:08:28;;;;;;;7.05;4.30;;;;;;;6.71;63.88;100916.50;8697140;33;20512;-75
2021/10/24 22:13:32;;;;;;;5.15;4.28;;;;;;;6.53;64.38;100913.06;8697775;33;20665;-75
2021/10/24 22:18:35;;;;;;;6.88;4.05;;;;;;;6.49;64.56;100915.97;8697643;33;20145;-76
2021/10/24 22:23:40;;;;;;;4.95;3.47;;;;;;;6.38;64.99;100911.25;8696055;33;20544;-76
2021/10/24 22:28:44;;;;;;;6.82;4.32;;;;;;;6.28;65.07;100905.56;8694346;33;20148;-75
2021/10/24 22:33:47;;;;;;;7.13;4.25;;;;;;;6.21;65.45;100905.97;8694755;33;20590;-75
2021/10/24 22:38:51;;;;;;;7.68;4.55;;;;;;;6.17;65.52;100900.81;8693492;33;20148;-75
2021/10/24 22:43:55;;;;;;;5.65;4.30;;;;;;;6.17;65.68;100894.59;8697825;33;20155;-76
2021/10/24 22:48:58;;;;;;;8.15;4.35;;;;;;;6.12;65.84;100894.00;8675903;33;20515;-76
2021/10/24 22:54:03;;;;;;;6.22;4.25;;;;;;;6.10;65.96;100894.06;8675271;33;20141;-75
2021/10/24 22:59:06;;;;;;;6.30;4.40;;;;;;;6.12;66.10;100888.66;8699882;33;20148;-74
2021/10/24 23:04:11;;;;;;;6.13;4.65;;;;;;;6.12;66.23;100886.00;8674926;33;20199;-74
2021/10/24 23:09:16;;;;;;;8.32;4.40;;;;;;;6.12;65.85;100886.84;8675293;33;20153;-75
2021/10/24 23:14:19;;;;;;;8.68;4.53;;;;;;;6.01;66.18;100885.72;8643041;33;21048;-76
2021/10/24 23:19:22;;;;;;;8.75;4.63;;;;;;;5.94;66.41;100886.03;8532033;33;20435;-76
2021/10/24 23:24:27;;;;;;;5.22;4.72;;;;;;;5.91;66.42;100878.19;8540383;33;20147;-75
2021/10/24 23:29:31;;;;;;;5.45;4.60;;;;;;;5.87;66.71;100886.44;8542411;33;20427;-76
2021/10/24 23:34:34;;;;;;;5.28;4.13;;;;;;;5.82;66.77;100892.03;8539458;33;20141;-75
2021/10/24 23:39:38;;;;;;;5.30;4.47;;;;;;;5.82;67.05;100885.84;8504972;33;20587;-75
2021/10/24 23:44:42;;;;;;;6.82;4.63;;;;;;;5.86;66.65;100890.06;8527950;33;20425;-76
2021/10/24 23:49:45;;;;;;;7.38;5.38;;;;;;;5.85;67.14;100881.19;8522493;33;20145;-75
2021/10/24 23:54:50;;;;;;;10.45;5.05;;;;;;;5.84;67.06;100883.94;8520874;33;20514;-75